Ranchester, Wyoming
Current Conditions -  °F | °C
As of 5:53 AM on Tuesday 21 Oct 2014 (Local Time) from KSHR Reporting Station
Clear Clear  
Wind Chill: 39°   Ceiling: Unl
Heat Index: 39°   Visibility: 10mi
Dew Point: 29°   Wind: 0mph
Humidity: 67%   Direction: NA
Pressure: 29.79"   Gusts: NA
Location:  44.91°N, 107.16°W
Report Text: KSHR 211153Z AUTO 00000KT 10SM CLR 04/M02 A2979 RMK AO2 SLP083 T00391017 10078 20028 55006 TSNO
Loading
Personal Weather Stations






























Interactive Weather Map
Tropical Storm Tracking
New forecast layout! Learn more

10-Day Weather Forecast

Advertisements
Track Severe Weather on mobile